createdAt,value
2023-04-22T00:00:59.368Z,4816.00
2023-04-22T00:01:59.429Z,4809.00
2023-04-22T00:02:59.589Z,4869.00
2023-04-22T00:03:59.630Z,4912.00
2023-04-22T00:04:59.871Z,4920.00
2023-04-22T00:05:59.736Z,4955.00
2023-04-22T00:06:59.555Z,4880.00
2023-04-22T00:07:59.574Z,4694.00
2023-04-22T00:08:59.634Z,4761.00
2023-04-22T00:09:59.687Z,4904.00
2023-04-22T00:10:59.737Z,5070.00
2023-04-22T00:11:59.826Z,5173.00
2023-04-22T00:12:59.784Z,5276.00
2023-04-22T00:13:59.825Z,5412.00
2023-04-22T00:14:59.831Z,5429.00
2023-04-22T00:16:00.034Z,5361.00
2023-04-22T00:16:59.863Z,5286.00
2023-04-22T00:17:59.872Z,5359.00
2023-04-22T00:18:59.841Z,5411.00
2023-04-22T00:19:59.932Z,5279.00
2023-04-22T00:20:59.921Z,5104.00
2023-04-22T00:21:59.941Z,5176.00
2023-04-22T00:22:59.931Z,5178.00
2023-04-22T00:24:00.002Z,5129.00
2023-04-22T00:25:00.009Z,5189.00
2023-04-22T00:26:00.124Z,5372.00
2023-04-22T00:27:00.179Z,5444.00
2023-04-22T00:28:00.171Z,5306.00
2023-04-22T00:29:00.210Z,5327.00
2023-04-22T00:30:00.186Z,5390.00
2023-04-22T00:31:00.231Z,5212.00
2023-04-22T00:32:00.202Z,5143.00
2023-04-22T00:33:00.229Z,5192.00
2023-04-22T00:34:00.309Z,5235.00
2023-04-22T00:35:00.255Z,5232.00
2023-04-22T00:36:00.269Z,5167.00
2023-04-22T00:37:00.278Z,4926.00
2023-04-22T00:38:00.349Z,4736.00
2023-04-22T00:39:00.391Z,4667.00
2023-04-22T00:40:00.372Z,4709.00
2023-04-22T00:41:00.455Z,4750.00
2023-04-22T00:42:00.465Z,4836.00
2023-04-22T00:43:00.460Z,4876.00
2023-04-22T00:44:00.509Z,4792.00
2023-04-22T00:45:00.568Z,4705.00
2023-04-22T00:46:00.536Z,4687.00
2023-04-22T00:47:00.666Z,4678.00
2023-04-22T00:48:00.631Z,4596.00
2023-04-22T00:49:00.605Z,4560.00
2023-04-22T00:50:00.646Z,4522.00
2023-04-22T00:51:00.658Z,4546.00
2023-04-22T00:52:00.693Z,4650.00
2023-04-22T00:53:00.694Z,4822.00
2023-04-22T00:54:00.720Z,4992.00
2023-04-22T00:55:00.775Z,5118.00
2023-04-22T00:56:00.766Z,5233.00
2023-04-22T00:57:00.843Z,5308.00
2023-04-22T00:58:00.821Z,5404.00
2023-04-22T00:59:00.819Z,5436.00
2023-04-22T01:00:00.845Z,5460.00
2023-04-22T01:01:00.889Z,5483.00
2023-04-22T01:02:00.889Z,5536.00
2023-04-22T01:03:01.033Z,5521.00
2023-04-22T01:04:00.999Z,5292.00
2023-04-22T01:05:00.951Z,5214.00
2023-04-22T01:06:01.047Z,5060.00
2023-04-22T01:07:01.038Z,4959.00
2023-04-22T01:08:01.063Z,5022.00
2023-04-22T01:09:01.125Z,4842.00
2023-04-22T01:10:01.107Z,4827.00
2023-04-22T01:11:01.168Z,4878.00
2023-04-22T01:12:01.218Z,4833.00
2023-04-22T01:13:01.239Z,4877.00
2023-04-22T01:14:01.295Z,5012.00
2023-04-22T01:15:04.277Z,5154.00
2023-04-22T01:16:01.277Z,5160.00
2023-04-22T01:17:01.339Z,5204.00
2023-04-22T01:18:01.342Z,5229.00
2023-04-22T01:19:01.242Z,5236.00
2023-04-22T01:20:01.277Z,5184.00
2023-04-22T01:21:01.240Z,5234.00
2023-04-22T01:22:01.258Z,5223.00
2023-04-22T01:23:01.268Z,5199.00
2023-04-22T01:24:01.204Z,5138.00
2023-04-22T01:25:01.218Z,5096.00
2023-04-22T01:26:01.245Z,5067.00
2023-04-22T01:27:01.220Z,5082.00
2023-04-22T01:28:01.249Z,5032.00
2023-04-22T01:29:01.180Z,5137.00
2023-04-22T01:30:01.169Z,5106.00
2023-04-22T01:31:01.210Z,5154.00
2023-04-22T01:32:01.195Z,5228.00
2023-04-22T01:33:01.228Z,5071.00
2023-04-22T01:34:01.182Z,4959.00
2023-04-22T01:35:01.130Z,4949.00
2023-04-22T01:36:01.132Z,4999.00
2023-04-22T01:37:01.172Z,5061.00
2023-04-22T01:38:01.154Z,5038.00
2023-04-22T01:39:01.116Z,5063.00
2023-04-22T01:40:01.112Z,5057.00
2023-04-22T01:41:01.106Z,5095.00
2023-04-22T01:42:01.123Z,5141.00
2023-04-22T01:43:01.100Z,5145.00
2023-04-22T01:44:01.088Z,5322.00
2023-04-22T01:45:01.116Z,5446.00
2023-04-22T01:46:01.108Z,5544.00
2023-04-22T01:47:01.111Z,5604.00
2023-04-22T01:48:01.130Z,5678.00
2023-04-22T01:49:01.096Z,5707.00
2023-04-22T01:50:01.093Z,5823.00
2023-04-22T01:51:01.081Z,5881.00
2023-04-22T01:52:01.095Z,5917.00
2023-04-22T01:53:01.148Z,5945.00
2023-04-22T01:54:01.164Z,5962.00
2023-04-22T01:55:01.132Z,6005.00
2023-04-22T01:56:01.177Z,6063.00
2023-04-22T01:57:01.187Z,6053.00
2023-04-22T01:58:01.191Z,6053.00
2023-04-22T01:59:01.207Z,6129.00
2023-04-22T02:00:01.255Z,6173.00
2023-04-22T02:01:01.238Z,6201.00
2023-04-22T02:02:01.260Z,6265.00
2023-04-22T02:03:01.375Z,6293.00
2023-04-22T02:04:01.225Z,6260.00
2023-04-22T02:05:01.304Z,6189.00
2023-04-22T02:06:01.351Z,6066.00
2023-04-22T02:07:01.413Z,6071.00
2023-04-22T02:08:01.506Z,6095.00
2023-04-22T02:09:01.457Z,6091.00
2023-04-22T02:10:01.569Z,6137.00
2023-04-22T02:11:01.599Z,6140.00
2023-04-22T02:12:01.620Z,6181.00
2023-04-22T02:13:01.704Z,6255.00
2023-04-22T02:14:01.769Z,6343.00
2023-04-22T02:15:01.775Z,6469.00
2023-04-22T02:16:01.921Z,6588.00
2023-04-22T02:17:01.926Z,6568.00
2023-04-22T02:18:01.983Z,6436.00
2023-04-22T02:19:02.012Z,6438.00
2023-04-22T02:20:02.123Z,6423.00
2023-04-22T02:21:02.171Z,6447.00
2023-04-22T02:22:02.188Z,6462.00
2023-04-22T02:23:02.276Z,6399.00
2023-04-22T02:24:02.284Z,6390.00
2023-04-22T02:25:02.351Z,6355.00
2023-04-22T02:26:02.363Z,6278.00
2023-04-22T02:27:02.412Z,6250.00
2023-04-22T02:28:02.464Z,6261.00
2023-04-22T02:29:02.483Z,6328.00
2023-04-22T02:30:02.613Z,6217.00
2023-04-22T02:31:02.656Z,6137.00
2023-04-22T02:32:02.643Z,6097.00
2023-04-22T02:33:02.703Z,6093.00
2023-04-22T02:34:02.725Z,6040.00
2023-04-22T02:35:02.785Z,5961.00
2023-04-22T02:36:02.855Z,5882.00
2023-04-22T02:37:02.896Z,5936.00
2023-04-22T02:38:02.936Z,5964.00
2023-04-22T02:39:02.989Z,5974.00
2023-04-22T02:40:03.041Z,5905.00
2023-04-22T02:41:03.124Z,5857.00
2023-04-22T02:42:03.143Z,5849.00
2023-04-22T02:43:03.240Z,5864.00
2023-04-22T02:44:03.274Z,5927.00
2023-04-22T02:45:03.352Z,5950.00
2023-04-22T02:46:03.483Z,6098.00
2023-04-22T02:47:03.578Z,6242.00
2023-04-22T02:48:03.585Z,6200.00
2023-04-22T02:49:03.593Z,6229.00
2023-04-22T02:50:03.622Z,6200.00
2023-04-22T02:51:03.696Z,6220.00
2023-04-22T02:52:03.759Z,6287.00
2023-04-22T02:53:03.799Z,6397.00
2023-04-22T02:54:03.883Z,6538.00
2023-04-22T02:55:03.945Z,6631.00
2023-04-22T02:56:04.004Z,6652.00
2023-04-22T02:57:04.013Z,6670.00
2023-04-22T02:58:04.063Z,6638.00
2023-04-22T02:59:04.122Z,6529.00
2023-04-22T03:00:04.180Z,6498.00
2023-04-22T03:01:04.401Z,6519.00
2023-04-22T03:02:06.659Z,6513.00
2023-04-22T03:03:04.515Z,6512.00
2023-04-22T03:04:04.385Z,6401.00
2023-04-22T03:05:04.297Z,6360.00
2023-04-22T03:06:04.312Z,6313.00
2023-04-22T03:07:04.276Z,6276.00
2023-04-22T03:08:04.328Z,6350.00
2023-04-22T03:09:04.236Z,6455.00
2023-04-22T03:10:04.250Z,6559.00
2023-04-22T03:11:04.281Z,6631.00
2023-04-22T03:12:04.210Z,6604.00
2023-04-22T03:13:04.225Z,6615.00
2023-04-22T03:14:04.225Z,6666.00
2023-04-22T03:15:04.324Z,6643.00
2023-04-22T03:16:04.268Z,6709.00
2023-04-22T03:17:04.281Z,6795.00
2023-04-22T03:18:04.255Z,6707.00
2023-04-22T03:19:04.193Z,6563.00
2023-04-22T03:20:04.205Z,6408.00
2023-04-22T03:21:04.174Z,6293.00
2023-04-22T03:22:04.165Z,6306.00
2023-04-22T03:23:04.169Z,6307.00
2023-04-22T03:24:04.180Z,6379.00
2023-04-22T03:25:04.163Z,6429.00
2023-04-22T03:26:04.140Z,6505.00
2023-04-22T03:27:04.171Z,6454.00
2023-04-22T03:28:04.210Z,6387.00
2023-04-22T03:29:04.120Z,6302.00
2023-04-22T03:30:04.187Z,6308.00
2023-04-22T03:31:04.237Z,6314.00
2023-04-22T03:32:04.129Z,6288.00
2023-04-22T03:33:04.190Z,6312.00
2023-04-22T03:34:04.102Z,6348.00
2023-04-22T03:35:04.109Z,6326.00
2023-04-22T03:36:04.055Z,6183.00
2023-04-22T03:37:04.076Z,6131.00
2023-04-22T03:38:04.033Z,6063.00
2023-04-22T03:39:04.050Z,5967.00
2023-04-22T03:40:04.038Z,6039.00
2023-04-22T03:41:04.057Z,6033.00
2023-04-22T03:42:04.037Z,6045.00
2023-04-22T03:43:04.027Z,6088.00
2023-04-22T03:44:04.095Z,6198.00
2023-04-22T03:45:04.010Z,6348.00
2023-04-22T03:46:04.076Z,6460.00
2023-04-22T03:47:03.981Z,6591.00
2023-04-22T03:48:04.137Z,6705.00
2023-04-22T03:49:04.016Z,6806.00
2023-04-22T03:50:03.997Z,6803.00
2023-04-22T03:51:04.081Z,6776.00
2023-04-22T03:52:03.935Z,6792.00
2023-04-22T03:53:03.921Z,6749.00
2023-04-22T03:54:04.057Z,6816.00
2023-04-22T03:55:03.951Z,6912.00
2023-04-22T03:56:03.941Z,6902.00
2023-04-22T03:57:04.010Z,6893.00
2023-04-22T03:58:03.895Z,6936.00
2023-04-22T03:59:03.907Z,6910.00
2023-04-22T04:00:03.916Z,6820.00
2023-04-22T04:01:03.924Z,6779.00
2023-04-22T04:02:04.124Z,6806.00
2023-04-22T04:03:04.065Z,6820.00
2023-04-22T04:04:04.049Z,6823.00
2023-04-22T04:05:04.177Z,6810.00
2023-04-22T04:06:04.023Z,6826.00
2023-04-22T04:07:03.862Z,6756.00
2023-04-22T04:08:03.924Z,6723.00
2023-04-22T04:09:03.907Z,6782.00
2023-04-22T04:10:03.921Z,6887.00
2023-04-22T04:11:03.935Z,7011.00
2023-04-22T04:12:03.955Z,7039.00
2023-04-22T04:13:03.977Z,7065.00
2023-04-22T04:14:04.036Z,7058.00
2023-04-22T04:15:03.987Z,7055.00
2023-04-22T04:16:04.107Z,7032.00
2023-04-22T04:17:04.111Z,7040.00
2023-04-22T04:18:04.140Z,7011.00
2023-04-22T04:19:04.097Z,7012.00
2023-04-22T04:20:04.109Z,7002.00
2023-04-22T04:21:04.169Z,6940.00
2023-04-22T04:22:04.185Z,6877.00
2023-04-22T04:23:04.176Z,6876.00
2023-04-22T04:24:04.233Z,6801.00
2023-04-22T04:25:04.275Z,6722.00
2023-04-22T04:26:04.309Z,6671.00
2023-04-22T04:27:04.331Z,6687.00
2023-04-22T04:28:04.393Z,6630.00
2023-04-22T04:29:04.369Z,6602.00
2023-04-22T04:30:04.387Z,6516.00
2023-04-22T04:31:04.492Z,6410.00
2023-04-22T04:32:04.437Z,6386.00
2023-04-22T04:33:04.547Z,6425.00
2023-04-22T04:34:04.477Z,6438.00
2023-04-22T04:35:04.623Z,6340.00
2023-04-22T04:36:04.568Z,6197.00
2023-04-22T04:37:04.551Z,6195.00
2023-04-22T04:38:04.641Z,6292.00
2023-04-22T04:39:04.615Z,6430.00
2023-04-22T04:40:04.684Z,6576.00
2023-04-22T04:41:04.679Z,6715.00
2023-04-22T04:42:04.750Z,6787.00
2023-04-22T04:43:04.780Z,6790.00
2023-04-22T04:44:04.730Z,6809.00
2023-04-22T04:45:04.761Z,6811.00
2023-04-22T04:46:04.822Z,6892.00
2023-04-22T04:47:04.800Z,6917.00
2023-04-22T04:48:04.879Z,6859.00
2023-04-22T04:49:04.828Z,6895.00
2023-04-22T04:50:04.885Z,6946.00
2023-04-22T04:51:04.860Z,6907.00
2023-04-22T04:52:04.847Z,6974.00
2023-04-22T04:53:04.941Z,7021.00
2023-04-22T04:54:04.914Z,6880.00
2023-04-22T04:55:04.966Z,6817.00
2023-04-22T04:56:04.980Z,6734.00
2023-04-22T04:57:04.969Z,6644.00
2023-04-22T04:58:04.979Z,6677.00
2023-04-22T04:59:04.987Z,6800.00
2023-04-22T05:00:05.008Z,6977.00
2023-04-22T05:01:05.077Z,7140.00
2023-04-22T05:02:05.043Z,7262.00
2023-04-22T05:03:05.167Z,7387.00
2023-04-22T05:04:05.182Z,7465.00
2023-04-22T05:05:05.072Z,7502.00
2023-04-22T05:06:05.184Z,7444.00
2023-04-22T05:07:05.135Z,7269.00
2023-04-22T05:08:05.099Z,7127.00
2023-04-22T05:09:05.098Z,6995.00
2023-04-22T05:10:05.174Z,6928.00
2023-04-22T05:11:05.176Z,6761.00
2023-04-22T05:12:05.180Z,6607.00
2023-04-22T05:13:05.191Z,6522.00
2023-04-22T05:14:05.303Z,6537.00
2023-04-22T05:15:05.199Z,6487.00
2023-04-22T05:16:05.312Z,6437.00
2023-04-22T05:17:05.268Z,6376.00
2023-04-22T05:18:05.313Z,6366.00
2023-04-22T05:19:05.353Z,6284.00
2023-04-22T05:20:05.305Z,6228.00
2023-04-22T05:21:05.748Z,6112.00
2023-04-22T05:22:05.333Z,5941.00
2023-04-22T05:23:05.350Z,5828.00
2023-04-22T05:24:05.352Z,5786.00
2023-04-22T05:25:05.390Z,5834.00
2023-04-22T05:26:05.427Z,5991.00
2023-04-22T05:27:05.473Z,6198.00
2023-04-22T05:28:05.438Z,6362.00
2023-04-22T05:29:05.436Z,6287.00
2023-04-22T05:30:05.489Z,6247.00
2023-04-22T05:31:05.500Z,6305.00
2023-04-22T05:32:05.558Z,6352.00
2023-04-22T05:33:05.551Z,6399.00
2023-04-22T05:34:05.641Z,6515.00
2023-04-22T05:35:05.540Z,6603.00
2023-04-22T05:36:05.561Z,6530.00
2023-04-22T05:37:05.704Z,6468.00
2023-04-22T05:38:05.545Z,6477.00
2023-04-22T05:39:05.556Z,6402.00
2023-04-22T05:40:05.563Z,6246.00
2023-04-22T05:41:05.623Z,6127.00
2023-04-22T05:42:05.586Z,6109.00
2023-04-22T05:43:05.676Z,6004.00
2023-04-22T05:44:05.617Z,5937.00
2023-04-22T05:45:05.585Z,5886.00
2023-04-22T05:46:05.675Z,5638.00
2023-04-22T05:47:05.628Z,5513.00
2023-04-22T05:48:05.676Z,5494.00
2023-04-22T05:49:05.629Z,5504.00
2023-04-22T05:50:05.684Z,5471.00
2023-04-22T05:51:05.781Z,5269.00
2023-04-22T05:52:05.953Z,5079.00
2023-04-22T05:53:05.861Z,4867.00
2023-04-22T05:54:05.866Z,4755.00
2023-04-22T05:55:05.962Z,4665.00
2023-04-22T05:56:05.984Z,4643.00
2023-04-22T05:57:05.984Z,4495.00
2023-04-22T05:58:06.073Z,4459.00
2023-04-22T05:59:06.072Z,4582.00
2023-04-22T06:00:06.153Z,4205.00
2023-04-22T06:01:06.137Z,4187.00
2023-04-22T06:02:06.176Z,4166.00
2023-04-22T06:03:06.298Z,4242.00
2023-04-22T06:04:06.407Z,4284.00
2023-04-22T06:05:06.249Z,4403.00
2023-04-22T06:06:06.209Z,4496.00
2023-04-22T06:07:06.102Z,4590.00
2023-04-22T06:08:06.111Z,4817.00
2023-04-22T06:09:06.107Z,4959.00
2023-04-22T06:10:06.172Z,5113.00
2023-04-22T06:11:06.122Z,5065.00
2023-04-22T06:12:06.147Z,4991.00
2023-04-22T06:13:06.217Z,4908.00
2023-04-22T06:14:06.190Z,4836.00
2023-04-22T06:15:06.165Z,4564.00
2023-04-22T06:16:06.262Z,4518.00
2023-04-22T06:17:06.217Z,4541.00
2023-04-22T06:18:06.252Z,4556.00
2023-04-22T06:19:06.224Z,4670.00
2023-04-22T06:20:06.257Z,4655.00
2023-04-22T06:21:06.258Z,4555.00
2023-04-22T06:22:06.255Z,4589.00
2023-04-22T06:23:06.296Z,4668.00
2023-04-22T06:24:06.303Z,4733.00
2023-04-22T06:25:06.327Z,4834.00
2023-04-22T06:26:06.331Z,4943.00
2023-04-22T06:27:06.324Z,5091.00
2023-04-22T06:28:06.332Z,5135.00
2023-04-22T06:29:06.341Z,5245.00
2023-04-22T06:30:06.371Z,5324.00
2023-04-22T06:31:06.413Z,5348.00
2023-04-22T06:32:06.390Z,5409.00
2023-04-22T06:33:06.414Z,5287.00
2023-04-22T06:34:06.438Z,5331.00
2023-04-22T06:35:07.259Z,5421.00
2023-04-22T06:36:06.414Z,5415.00
2023-04-22T06:37:06.403Z,5235.00
2023-04-22T06:38:06.477Z,5059.00
2023-04-22T06:39:06.396Z,4912.00
2023-04-22T06:40:06.409Z,4882.00
2023-04-22T06:41:06.423Z,4816.00
2023-04-22T06:42:06.433Z,4882.00
2023-04-22T06:43:06.468Z,4761.00
2023-04-22T06:44:06.490Z,4532.00
2023-04-22T06:45:06.584Z,4452.00
2023-04-22T06:46:06.672Z,4428.00
2023-04-22T06:47:06.743Z,4293.00
2023-04-22T06:48:06.745Z,4361.00
2023-04-22T06:49:06.814Z,4365.00
2023-04-22T06:50:06.843Z,4355.00
2023-04-22T06:51:06.906Z,4166.00
2023-04-22T06:52:06.962Z,4177.00
2023-04-22T06:53:07.140Z,4236.00
2023-04-22T06:54:07.058Z,4244.00
2023-04-22T06:55:07.084Z,4278.00
2023-04-22T06:56:07.166Z,4166.00
2023-04-22T06:57:07.223Z,4220.00
2023-04-22T06:58:07.247Z,4397.00
2023-04-22T06:59:07.320Z,4489.00
2023-04-22T07:00:07.360Z,4579.00
2023-04-22T07:01:07.438Z,4541.00
2023-04-22T07:02:07.625Z,4547.00
2023-04-22T07:03:07.569Z,4415.00
2023-04-22T07:04:07.588Z,4460.00
2023-04-22T07:05:07.573Z,4534.00
2023-04-22T07:06:07.614Z,4297.00
2023-04-22T07:07:07.638Z,4363.00
2023-04-22T07:08:07.715Z,4356.00
2023-04-22T07:09:07.728Z,4453.00
2023-04-22T07:10:07.809Z,4640.00
2023-04-22T07:11:07.805Z,4696.00
2023-04-22T07:12:07.863Z,4671.00
2023-04-22T07:13:07.911Z,4571.00
2023-04-22T07:14:07.929Z,4535.00
2023-04-22T07:15:07.998Z,4588.00
2023-04-22T07:16:08.079Z,4631.00
2023-04-22T07:17:08.068Z,4625.00
2023-04-22T07:18:08.070Z,4545.00
2023-04-22T07:19:08.083Z,4404.00
2023-04-22T07:20:08.082Z,4459.00
2023-04-22T07:21:08.147Z,4273.00
2023-04-22T07:22:08.151Z,4195.00
2023-04-22T07:23:08.193Z,4188.00
2023-04-22T07:24:08.198Z,4034.00
2023-04-22T07:25:08.223Z,4009.00
2023-04-22T07:26:08.242Z,3996.00
2023-04-22T07:27:08.224Z,4054.00
2023-04-22T07:28:08.230Z,4058.00
2023-04-22T07:29:08.254Z,4108.00
2023-04-22T07:30:08.303Z,4152.00
2023-04-22T07:31:08.279Z,3958.00
2023-04-22T07:32:08.396Z,3885.00
2023-04-22T07:33:08.310Z,3649.00
2023-04-22T07:34:08.314Z,3603.00
2023-04-22T07:35:08.289Z,3418.00
2023-04-22T07:36:08.285Z,3399.00
2023-04-22T07:37:08.288Z,3511.00
2023-04-22T07:38:09.607Z,3452.00
2023-04-22T07:39:08.385Z,3606.00
2023-04-22T07:40:08.444Z,3463.00
2023-04-22T07:41:08.524Z,3404.00
2023-04-22T07:42:08.575Z,3361.00
2023-04-22T07:43:08.641Z,3291.00
2023-04-22T07:44:08.712Z,3269.00
2023-04-22T07:45:08.746Z,3202.00
2023-04-22T07:46:08.811Z,3053.00
2023-04-22T07:47:08.876Z,2839.00
2023-04-22T07:48:08.956Z,2757.00
2023-04-22T07:49:08.977Z,2873.00
2023-04-22T07:50:09.056Z,2863.00
2023-04-22T07:51:09.123Z,3098.00
2023-04-22T07:52:09.194Z,3169.00
2023-04-22T07:53:09.216Z,3191.00
2023-04-22T07:54:09.297Z,3061.00
2023-04-22T07:55:09.296Z,3045.00
2023-04-22T07:56:09.371Z,3156.00
2023-04-22T07:57:09.443Z,3171.00
2023-04-22T07:58:09.521Z,3342.00
2023-04-22T07:59:09.534Z,3420.00
2023-04-22T08:00:09.589Z,3643.00
2023-04-22T08:01:09.858Z,3595.00
2023-04-22T08:02:09.806Z,3505.00
2023-04-22T08:03:10.006Z,3645.00
2023-04-22T08:04:10.149Z,3584.00
2023-04-22T08:05:09.828Z,3288.00
2023-04-22T08:06:09.825Z,3261.00
2023-04-22T08:07:26.947Z,3390.00
2023-04-22T08:08:10.823Z,3392.00
2023-04-22T08:09:09.814Z,3395.00
2023-04-22T08:10:09.849Z,3301.00
2023-04-22T08:11:09.835Z,3172.00
2023-04-22T08:12:09.819Z,2923.00
2023-04-22T08:13:09.867Z,2747.00
2023-04-22T08:14:09.825Z,2771.00
2023-04-22T08:15:09.916Z,3010.00
2023-04-22T08:16:09.951Z,2962.00
2023-04-22T08:17:09.753Z,3015.00
2023-04-22T08:18:09.766Z,2859.00
2023-04-22T08:19:09.782Z,2994.00
2023-04-22T08:20:09.722Z,3029.00
2023-04-22T08:21:09.989Z,2756.00
2023-04-22T08:22:09.735Z,2678.00
2023-04-22T08:23:09.702Z,2522.00
2023-04-22T08:24:09.764Z,2406.00
2023-04-22T08:25:09.756Z,2250.00
2023-04-22T08:26:10.306Z,2386.00
2023-04-22T08:27:09.836Z,2088.00
2023-04-22T08:28:09.936Z,2106.00
2023-04-22T08:29:10.027Z,2011.00
2023-04-22T08:30:09.975Z,2057.00
2023-04-22T08:31:09.993Z,1854.00
2023-04-22T08:32:10.034Z,1656.00
2023-04-22T08:33:10.042Z,1590.00
2023-04-22T08:34:10.020Z,1574.00
2023-04-22T08:35:10.049Z,1439.00
2023-04-22T08:36:09.979Z,1454.00
2023-04-22T08:37:10.107Z,1442.00
2023-04-22T08:38:10.087Z,1493.00
2023-04-22T08:39:09.965Z,1346.00
2023-04-22T08:40:09.967Z,1251.00
2023-04-22T08:41:10.112Z,1085.00
2023-04-22T08:42:09.985Z,857.00
2023-04-22T08:43:10.009Z,651.00
2023-04-22T08:44:10.001Z,691.00
2023-04-22T08:45:10.022Z,716.00
2023-04-22T08:46:10.049Z,589.00
2023-04-22T08:47:10.122Z,572.00
2023-04-22T08:48:10.035Z,554.00
2023-04-22T08:49:10.038Z,584.00
2023-04-22T08:50:10.099Z,615.00
2023-04-22T08:51:10.193Z,666.00
2023-04-22T08:52:10.137Z,607.00
2023-04-22T08:53:10.198Z,481.00
2023-04-22T08:54:10.286Z,506.00
2023-04-22T08:55:10.286Z,542.00
2023-04-22T08:56:10.330Z,476.00
2023-04-22T08:57:10.400Z,502.00
2023-04-22T08:58:10.430Z,504.00
2023-04-22T08:59:10.501Z,479.00
2023-04-22T09:00:10.585Z,579.00
2023-04-22T09:01:10.623Z,553.00
2023-04-22T09:02:10.657Z,555.00
2023-04-22T09:03:10.804Z,532.00
2023-04-22T09:04:10.784Z,511.00
2023-04-22T09:05:10.745Z,511.00
2023-04-22T09:06:10.840Z,531.00
2023-04-22T09:07:10.758Z,582.00
2023-04-22T09:08:10.854Z,565.00
2023-04-22T09:09:10.818Z,585.00
2023-04-22T09:10:10.843Z,525.00
2023-04-22T09:11:10.878Z,521.00
2023-04-22T09:12:10.884Z,561.00
2023-04-22T09:13:10.889Z,609.00
2023-04-22T09:14:10.897Z,525.00
2023-04-22T09:15:10.903Z,529.00
2023-04-22T09:16:10.959Z,521.00
2023-04-22T09:17:10.885Z,502.00
2023-04-22T09:18:10.898Z,520.00
2023-04-22T09:19:10.971Z,550.00
2023-04-22T09:20:10.976Z,516.00
2023-04-22T09:21:11.007Z,514.00
2023-04-22T09:22:11.060Z,500.00
2023-04-22T09:23:11.190Z,565.00
2023-04-22T09:24:11.146Z,500.00
2023-04-22T09:25:11.275Z,500.00
2023-04-22T09:26:11.318Z,497.00
2023-04-22T09:27:11.360Z,513.00
2023-04-22T09:28:11.386Z,532.00
2023-04-22T09:29:11.448Z,499.00
2023-04-22T09:30:11.539Z,479.00
2023-04-22T09:31:11.537Z,535.00
2023-04-22T09:32:11.619Z,510.00
2023-04-22T09:33:11.656Z,477.00
2023-04-22T09:34:11.663Z,507.00
2023-04-22T09:35:11.812Z,557.00
2023-04-22T09:36:11.743Z,613.00
2023-04-22T09:37:11.765Z,503.00
2023-04-22T09:38:11.807Z,520.00
2023-04-22T09:39:11.830Z,428.00
2023-04-22T09:40:11.813Z,431.00
2023-04-22T09:41:11.932Z,500.00
2023-04-22T09:42:11.855Z,483.00
2023-04-22T09:43:11.833Z,500.00
2023-04-22T09:44:11.851Z,531.00
2023-04-22T09:45:11.841Z,536.00
2023-04-22T09:46:11.901Z,495.00
2023-04-22T09:47:11.851Z,501.00
2023-04-22T09:48:11.891Z,492.00
2023-04-22T09:49:12.111Z,585.00
2023-04-22T09:50:12.860Z,697.00
2023-04-22T09:51:11.871Z,2541.00
2023-04-22T09:52:11.886Z,1932.00
2023-04-22T09:53:11.890Z,1075.00
2023-04-22T09:54:11.906Z,1242.00
2023-04-22T09:55:11.951Z,1509.00
2023-04-22T09:56:12.385Z,2242.00
2023-04-22T09:57:11.922Z,2975.00
2023-04-22T09:58:11.940Z,2461.00
2023-04-22T09:59:12.117Z,2625.00
2023-04-22T10:00:12.246Z,1632.00
2023-04-22T10:01:12.187Z,1435.00
2023-04-22T10:02:12.305Z,1451.00
2023-04-22T10:03:12.608Z,1172.00
2023-04-22T10:04:12.317Z,908.00
2023-04-22T10:05:12.470Z,956.00
2023-04-22T10:06:12.428Z,966.00
2023-04-22T10:07:12.480Z,686.00
2023-04-22T10:08:12.560Z,604.00
2023-04-22T10:10:32.588Z,500.00
2023-04-22T10:11:32.592Z,500.00
2023-04-22T10:12:35.785Z,500.00
2023-04-22T10:13:32.640Z,500.00
2023-04-22T10:14:32.570Z,500.00
2023-04-22T10:15:32.551Z,500.00
2023-04-22T10:16:32.796Z,500.00
2023-04-22T10:17:32.608Z,500.00
2023-04-22T10:18:32.537Z,538.00
2023-04-22T10:19:32.492Z,607.00
2023-04-22T10:20:32.490Z,562.00
2023-04-22T10:21:32.496Z,603.00
2023-04-22T10:22:32.510Z,551.00
2023-04-22T10:23:32.567Z,549.00
2023-04-22T10:24:32.516Z,620.00
2023-04-22T10:25:32.473Z,621.00
2023-04-22T10:26:32.506Z,492.00
2023-04-22T10:27:32.546Z,500.00
2023-04-22T10:28:32.446Z,523.00
2023-04-22T10:29:32.522Z,546.00
2023-04-22T10:30:32.433Z,579.00
2023-04-22T10:31:32.515Z,636.00
2023-04-22T10:32:32.467Z,605.00
2023-04-22T10:33:32.465Z,528.00
2023-04-22T10:34:32.394Z,510.00
2023-04-22T10:36:52.882Z,500.00
2023-04-22T10:37:56.026Z,500.00
2023-04-22T10:40:11.368Z,500.00
2023-04-22T10:42:30.825Z,500.00
2023-04-22T10:43:32.895Z,500.00
2023-04-22T10:44:30.997Z,500.00
2023-04-22T10:45:30.936Z,500.00
2023-04-22T10:46:31.100Z,500.00
2023-04-22T10:47:31.148Z,416.00
2023-04-22T10:48:31.088Z,400.00
2023-04-22T10:49:31.124Z,514.00
2023-04-22T10:50:31.198Z,545.00
2023-04-22T10:51:31.223Z,553.00
2023-04-22T10:52:31.249Z,498.00
2023-04-22T10:53:31.229Z,513.00
2023-04-22T10:54:32.365Z,510.00
2023-04-22T10:55:31.327Z,512.00
2023-04-22T10:56:31.395Z,630.00
2023-04-22T10:57:31.326Z,754.00
2023-04-22T10:58:31.300Z,667.00
2023-04-22T10:59:31.354Z,529.00
2023-04-22T11:01:31.395Z,591.00
2023-04-22T11:02:31.497Z,661.00
2023-04-22T11:03:31.440Z,700.00
2023-04-22T11:04:31.459Z,664.00
2023-04-22T11:05:31.308Z,547.00
2023-04-22T11:06:31.292Z,501.00
2023-04-22T11:07:31.340Z,536.00
2023-04-22T11:08:31.264Z,498.00
2023-04-22T11:09:31.294Z,555.00
2023-04-22T11:10:31.252Z,609.00
2023-04-22T11:11:31.248Z,503.00
2023-04-22T11:12:31.256Z,498.00
2023-04-22T11:13:31.289Z,497.00
2023-04-22T11:14:31.235Z,495.00
2023-04-22T11:15:31.211Z,547.00
2023-04-22T11:16:31.297Z,584.00
2023-04-22T11:17:31.250Z,508.00
2023-04-22T11:18:31.197Z,517.00
2023-04-22T11:19:31.364Z,473.00
2023-04-22T11:20:31.408Z,483.00
2023-04-22T11:21:31.394Z,511.00
2023-04-22T11:22:31.265Z,575.00
2023-04-22T11:23:31.278Z,576.00
2023-04-22T11:24:31.259Z,595.00
2023-04-22T11:25:31.178Z,532.00
2023-04-22T11:26:31.189Z,462.00
2023-04-22T11:27:31.159Z,500.00
2023-04-22T11:28:31.313Z,536.00
2023-04-22T11:29:31.198Z,432.00
2023-04-22T11:30:31.137Z,466.00
2023-04-22T11:31:31.163Z,493.00
2023-04-22T11:32:31.222Z,521.00
2023-04-22T11:33:31.162Z,756.00
2023-04-22T11:34:31.124Z,806.00
2023-04-22T11:35:31.112Z,1001.00
2023-04-22T11:36:31.113Z,1145.00
2023-04-22T11:37:31.091Z,713.00
2023-04-22T11:38:31.059Z,666.00
2023-04-22T11:39:31.080Z,571.00
2023-04-22T11:40:32.256Z,513.00
2023-04-22T11:41:31.123Z,400.00
2023-04-22T11:42:31.045Z,400.00
2023-04-22T11:43:31.188Z,460.00
2023-04-22T11:44:31.051Z,527.00
2023-04-22T11:45:31.119Z,623.00
2023-04-22T11:46:31.060Z,754.00
2023-04-22T11:47:31.055Z,1034.00
2023-04-22T11:48:31.061Z,962.00
2023-04-22T11:49:30.998Z,1059.00
2023-04-22T11:50:31.011Z,1190.00
2023-04-22T11:51:31.007Z,1324.00
2023-04-22T11:52:31.113Z,1270.00
2023-04-22T11:53:30.970Z,1438.00
2023-04-22T11:54:31.083Z,1327.00
2023-04-22T11:55:31.091Z,1231.00
2023-04-22T11:56:31.078Z,1154.00
2023-04-22T11:57:31.775Z,894.00
2023-04-22T11:58:30.966Z,977.00
2023-04-22T11:59:30.983Z,1173.00
2023-04-22T12:00:30.917Z,961.00
2023-04-22T12:01:30.972Z,734.00
2023-04-22T12:02:31.056Z,884.00
2023-04-22T12:03:31.372Z,737.00
2023-04-22T12:04:30.894Z,779.00
2023-04-22T12:05:31.056Z,891.00
2023-04-22T12:06:30.917Z,940.00
2023-04-22T12:07:30.875Z,653.00
2023-04-22T12:08:30.882Z,633.00
2023-04-22T12:09:30.912Z,807.00
2023-04-22T12:10:30.882Z,912.00
2023-04-22T12:11:30.860Z,1021.00
2023-04-22T12:12:30.843Z,1130.00
2023-04-22T12:13:30.882Z,1115.00
2023-04-22T12:14:30.869Z,1168.00
2023-04-22T12:15:30.961Z,963.00
2023-04-22T12:16:30.893Z,977.00
2023-04-22T12:17:30.874Z,880.00
2023-04-22T12:18:30.824Z,822.00